sensor_id;sensor_type;location;lat;lon;timestamp;P1;durP1;ratioP1;P2;durP2;ratioP2
20069;SDS011;10195;50.868;4.382;2022-09-09T00:04:27;6.63;;;1.43;;
20069;SDS011;10195;50.868;4.382;2022-09-09T00:07:03;7.40;;;1.63;;
20069;SDS011;10195;50.868;4.382;2022-09-09T00:15:24;3.73;;;1.43;;
20069;SDS011;10195;50.868;4.382;2022-09-09T00:17:58;5.13;;;1.30;;
20069;SDS011;10195;50.868;4.382;2022-09-09T00:20:48;6.93;;;1.77;;
20069;SDS011;10195;50.868;4.382;2022-09-09T00:23:27;4.03;;;1.47;;
20069;SDS011;10195;50.868;4.382;2022-09-09T00:31:41;6.10;;;1.70;;
20069;SDS011;10195;50.868;4.382;2022-09-09T00:34:15;3.73;;;1.40;;
20069;SDS011;10195;50.868;4.382;2022-09-09T00:36:48;5.93;;;1.70;;
20069;SDS011;10195;50.868;4.382;2022-09-09T00:39:25;5.50;;;1.70;;
20069;SDS011;10195;50.868;4.382;2022-09-09T00:42:02;8.37;;;1.97;;
20069;SDS011;10195;50.868;4.382;2022-09-09T00:44:34;4.17;;;1.40;;
20069;SDS011;10195;50.868;4.382;2022-09-09T01:00:02;6.57;;;1.53;;
20069;SDS011;10195;50.868;4.382;2022-09-09T01:02:52;6.90;;;1.70;;
20069;SDS011;10195;50.868;4.382;2022-09-09T01:05:36;3.67;;;1.23;;
20069;SDS011;10195;50.868;4.382;2022-09-09T01:08:19;6.73;;;1.57;;
20069;SDS011;10195;50.868;4.382;2022-09-09T01:10:56;5.90;;;1.48;;
20069;SDS011;10195;50.868;4.382;2022-09-09T01:15:58;6.03;;;1.45;;
20069;SDS011;10195;50.868;4.382;2022-09-09T01:18:37;6.50;;;1.60;;
20069;SDS011;10195;50.868;4.382;2022-09-09T01:21:35;4.57;;;1.20;;
20069;SDS011;10195;50.868;4.382;2022-09-09T01:24:29;6.37;;;1.37;;
20069;SDS011;10195;50.868;4.382;2022-09-09T01:27:02;7.38;;;1.80;;
20069;SDS011;10195;50.868;4.382;2022-09-09T01:29:31;7.77;;;1.70;;
20069;SDS011;10195;50.868;4.382;2022-09-09T01:32:01;7.40;;;1.20;;
20069;SDS011;10195;50.868;4.382;2022-09-09T01:34:48;6.37;;;1.67;;
20069;SDS011;10195;50.868;4.382;2022-09-09T01:37:15;6.87;;;1.40;;
20069;SDS011;10195;50.868;4.382;2022-09-09T01:39:41;5.90;;;1.50;;
20069;SDS011;10195;50.868;4.382;2022-09-09T01:42:10;5.60;;;1.50;;
20069;SDS011;10195;50.868;4.382;2022-09-09T01:44:38;8.25;;;1.65;;
20069;SDS011;10195;50.868;4.382;2022-09-09T01:47:04;7.17;;;1.53;;
20069;SDS011;10195;50.868;4.382;2022-09-09T01:49:30;9.20;;;1.73;;
20069;SDS011;10195;50.868;4.382;2022-09-09T01:51:57;7.17;;;1.47;;
20069;SDS011;10195;50.868;4.382;2022-09-09T01:54:24;8.87;;;2.27;;
20069;SDS011;10195;50.868;4.382;2022-09-09T02:07:44;9.77;;;2.10;;
20069;SDS011;10195;50.868;4.382;2022-09-09T02:10:20;12.37;;;2.00;;
20069;SDS011;10195;50.868;4.382;2022-09-09T02:12:48;6.60;;;1.97;;
20069;SDS011;10195;50.868;4.382;2022-09-09T02:15:22;7.57;;;1.63;;
20069;SDS011;10195;50.868;4.382;2022-09-09T02:17:53;11.23;;;2.00;;
20069;SDS011;10195;50.868;4.382;2022-09-09T02:20:23;10.20;;;1.90;;
20069;SDS011;10195;50.868;4.382;2022-09-09T02:22:51;12.53;;;2.20;;
20069;SDS011;10195;50.868;4.382;2022-09-09T02:25:20;10.97;;;2.03;;
20069;SDS011;10195;50.868;4.382;2022-09-09T02:27:49;11.90;;;2.40;;
20069;SDS011;10195;50.868;4.382;2022-09-09T02:30:19;12.33;;;2.23;;
20069;SDS011;10195;50.868;4.382;2022-09-09T02:32:45;10.43;;;1.60;;
20069;SDS011;10195;50.868;4.382;2022-09-09T02:35:15;9.10;;;2.27;;
20069;SDS011;10195;50.868;4.382;2022-09-09T02:37:46;9.00;;;2.27;;
20069;SDS011;10195;50.868;4.382;2022-09-09T02:40:12;12.33;;;2.40;;
20069;SDS011;10195;50.868;4.382;2022-09-09T02:42:43;8.10;;;2.20;;
20069;SDS011;10195;50.868;4.382;2022-09-09T02:45:10;9.33;;;2.07;;
20069;SDS011;10195;50.868;4.382;2022-09-09T02:53:16;16.80;;;3.10;;
20069;SDS011;10195;50.868;4.382;2022-09-09T02:58:13;12.13;;;2.30;;
20069;SDS011;10195;50.868;4.382;2022-09-09T03:00:48;12.10;;;2.03;;
20069;SDS011;10195;50.868;4.382;2022-09-09T03:03:16;10.63;;;2.47;;
20069;SDS011;10195;50.868;4.382;2022-09-09T03:05:43;12.57;;;2.00;;
20069;SDS011;10195;50.868;4.382;2022-09-09T03:08:09;8.57;;;2.00;;
20069;SDS011;10195;50.868;4.382;2022-09-09T03:10:35;8.97;;;2.20;;
20069;SDS011;10195;50.868;4.382;2022-09-09T03:13:01;11.87;;;2.40;;
20069;SDS011;10195;50.868;4.382;2022-09-09T03:15:30;9.93;;;2.17;;
20069;SDS011;10195;50.868;4.382;2022-09-09T03:17:57;7.32;;;1.80;;
20069;SDS011;10195;50.868;4.382;2022-09-09T03:20:27;9.40;;;2.53;;
20069;SDS011;10195;50.868;4.382;2022-09-09T03:22:54;9.77;;;2.00;;
20069;SDS011;10195;50.868;4.382;2022-09-09T03:25:20;8.97;;;1.87;;
20069;SDS011;10195;50.868;4.382;2022-09-09T03:27:50;8.37;;;2.33;;
20069;SDS011;10195;50.868;4.382;2022-09-09T03:30:19;11.83;;;2.17;;
20069;SDS011;10195;50.868;4.382;2022-09-09T03:32:49;8.97;;;1.80;;
20069;SDS011;10195;50.868;4.382;2022-09-09T03:35:15;7.63;;;2.00;;
20069;SDS011;10195;50.868;4.382;2022-09-09T03:37:41;8.37;;;2.10;;
20069;SDS011;10195;50.868;4.382;2022-09-09T03:40:07;8.97;;;2.40;;
20069;SDS011;10195;50.868;4.382;2022-09-09T03:42:35;13.60;;;2.27;;
20069;SDS011;10195;50.868;4.382;2022-09-09T03:45:02;8.93;;;2.20;;
20069;SDS011;10195;50.868;4.382;2022-09-09T03:47:33;12.37;;;2.40;;
20069;SDS011;10195;50.868;4.382;2022-09-09T03:49:59;12.37;;;2.27;;
20069;SDS011;10195;50.868;4.382;2022-09-09T03:52:25;13.27;;;2.60;;
20069;SDS011;10195;50.868;4.382;2022-09-09T03:54:51;14.27;;;2.43;;
20069;SDS011;10195;50.868;4.382;2022-09-09T03:57:18;12.97;;;2.47;;
20069;SDS011;10195;50.868;4.382;2022-09-09T03:59:44;14.50;;;2.60;;
20069;SDS011;10195;50.868;4.382;2022-09-09T04:02:10;14.37;;;2.60;;
20069;SDS011;10195;50.868;4.382;2022-09-09T04:04:35;15.33;;;2.43;;
20069;SDS011;10195;50.868;4.382;2022-09-09T04:07:01;11.87;;;2.50;;
20069;SDS011;10195;50.868;4.382;2022-09-09T04:09:27;9.37;;;2.10;;
20069;SDS011;10195;50.868;4.382;2022-09-09T04:11:53;11.47;;;2.30;;
20069;SDS011;10195;50.868;4.382;2022-09-09T04:14:20;9.67;;;2.20;;
20069;SDS011;10195;50.868;4.382;2022-09-09T04:16:46;12.57;;;2.50;;
20069;SDS011;10195;50.868;4.382;2022-09-09T04:19:12;11.60;;;2.20;;
20069;SDS011;10195;50.868;4.382;2022-09-09T04:21:41;13.57;;;2.53;;
20069;SDS011;10195;50.868;4.382;2022-09-09T04:24:07;9.00;;;1.97;;
20069;SDS011;10195;50.868;4.382;2022-09-09T04:26:33;16.07;;;2.50;;
20069;SDS011;10195;50.868;4.382;2022-09-09T04:29:01;13.03;;;2.60;;
20069;SDS011;10195;50.868;4.382;2022-09-09T04:31:27;15.03;;;2.73;;
20069;SDS011;10195;50.868;4.382;2022-09-09T04:33:53;12.53;;;2.10;;
20069;SDS011;10195;50.868;4.382;2022-09-09T04:36:18;14.60;;;2.30;;
20069;SDS011;10195;50.868;4.382;2022-09-09T04:38:44;19.80;;;3.20;;
20069;SDS011;10195;50.868;4.382;2022-09-09T04:41:10;11.93;;;2.50;;
20069;SDS011;10195;50.868;4.382;2022-09-09T04:43:37;11.30;;;2.33;;
20069;SDS011;10195;50.868;4.382;2022-09-09T04:46:04;9.30;;;2.50;;
20069;SDS011;10195;50.868;4.382;2022-09-09T04:48:30;9.63;;;2.57;;
20069;SDS011;10195;50.868;4.382;2022-09-09T04:53:31;17.23;;;2.70;;
20069;SDS011;10195;50.868;4.382;2022-09-09T04:58:28;11.07;;;2.40;;
20069;SDS011;10195;50.868;4.382;2022-09-09T05:00:53;13.20;;;2.43;;
20069;SDS011;10195;50.868;4.382;2022-09-09T05:03:19;8.37;;;2.50;;
20069;SDS011;10195;50.868;4.382;2022-09-09T05:05:45;7.70;;;2.10;;
20069;SDS011;10195;50.868;4.382;2022-09-09T05:08:10;15.03;;;2.63;;
20069;SDS011;10195;50.868;4.382;2022-09-09T05:10:37;15.77;;;3.17;;
20069;SDS011;10195;50.868;4.382;2022-09-09T05:13:03;9.77;;;2.50;;
20069;SDS011;10195;50.868;4.382;2022-09-09T05:15:29;12.73;;;2.97;;
20069;SDS011;10195;50.868;4.382;2022-09-09T05:17:59;12.67;;;2.63;;
20069;SDS011;10195;50.868;4.382;2022-09-09T05:20:25;16.63;;;2.63;;
20069;SDS011;10195;50.868;4.382;2022-09-09T05:22:56;13.90;;;2.63;;
20069;SDS011;10195;50.868;4.382;2022-09-09T05:25:22;10.87;;;2.63;;
20069;SDS011;10195;50.868;4.382;2022-09-09T05:27:50;13.30;;;2.80;;
20069;SDS011;10195;50.868;4.382;2022-09-09T05:30:17;14.27;;;3.10;;
20069;SDS011;10195;50.868;4.382;2022-09-09T05:32:43;17.27;;;2.87;;
20069;SDS011;10195;50.868;4.382;2022-09-09T05:35:09;13.63;;;2.77;;
20069;SDS011;10195;50.868;4.382;2022-09-09T05:37:35;21.50;;;3.33;;
20069;SDS011;10195;50.868;4.382;2022-09-09T05:40:00;14.53;;;2.80;;
20069;SDS011;10195;50.868;4.382;2022-09-09T05:42:29;17.47;;;3.03;;
20069;SDS011;10195;50.868;4.382;2022-09-09T05:44:55;11.50;;;3.10;;
20069;SDS011;10195;50.868;4.382;2022-09-09T05:47:23;6.03;;;2.07;;
20069;SDS011;10195;50.868;4.382;2022-09-09T05:49:48;15.97;;;3.57;;
20069;SDS011;10195;50.868;4.382;2022-09-09T05:52:14;16.77;;;2.73;;
20069;SDS011;10195;50.868;4.382;2022-09-09T05:54:39;14.07;;;2.93;;
20069;SDS011;10195;50.868;4.382;2022-09-09T05:57:06;11.47;;;3.23;;
20069;SDS011;10195;50.868;4.382;2022-09-09T05:59:32;13.17;;;2.13;;
20069;SDS011;10195;50.868;4.382;2022-09-09T06:01:57;13.03;;;2.90;;
20069;SDS011;10195;50.868;4.382;2022-09-09T06:04:24;15.47;;;3.33;;
20069;SDS011;10195;50.868;4.382;2022-09-09T06:06:49;11.03;;;2.33;;
20069;SDS011;10195;50.868;4.382;2022-09-09T06:09:15;10.87;;;2.90;;
20069;SDS011;10195;50.868;4.382;2022-09-09T06:11:41;11.67;;;2.47;;
20069;SDS011;10195;50.868;4.382;2022-09-09T06:14:07;12.90;;;2.63;;
20069;SDS011;10195;50.868;4.382;2022-09-09T06:16:33;16.50;;;3.10;;
20069;SDS011;10195;50.868;4.382;2022-09-09T06:19:00;14.07;;;2.50;;
20069;SDS011;10195;50.868;4.382;2022-09-09T06:21:28;18.17;;;3.03;;
20069;SDS011;10195;50.868;4.382;2022-09-09T06:23:59;9.70;;;2.50;;
20069;SDS011;10195;50.868;4.382;2022-09-09T06:26:34;10.83;;;2.40;;
20069;SDS011;10195;50.868;4.382;2022-09-09T06:29:06;9.90;;;2.35;;
20069;SDS011;10195;50.868;4.382;2022-09-09T06:31:33;17.83;;;2.67;;
20069;SDS011;10195;50.868;4.382;2022-09-09T06:34:03;10.48;;;2.67;;
20069;SDS011;10195;50.868;4.382;2022-09-09T06:36:37;12.45;;;2.20;;
20069;SDS011;10195;50.868;4.382;2022-09-09T06:39:04;12.40;;;2.33;;
20069;SDS011;10195;50.868;4.382;2022-09-09T06:41:31;15.90;;;2.87;;
20069;SDS011;10195;50.868;4.382;2022-09-09T06:43:58;8.23;;;2.10;;
20069;SDS011;10195;50.868;4.382;2022-09-09T06:46:24;10.70;;;2.23;;
20069;SDS011;10195;50.868;4.382;2022-09-09T06:48:52;8.40;;;2.00;;
20069;SDS011;10195;50.868;4.382;2022-09-09T06:51:21;10.50;;;2.57;;
20069;SDS011;10195;50.868;4.382;2022-09-09T06:53:49;14.77;;;3.38;;
20069;SDS011;10195;50.868;4.382;2022-09-09T06:58:44;15.83;;;2.87;;
20069;SDS011;10195;50.868;4.382;2022-09-09T07:01:14;14.63;;;2.70;;
20069;SDS011;10195;50.868;4.382;2022-09-09T07:03:44;17.27;;;3.37;;
20069;SDS011;10195;50.868;4.382;2022-09-09T07:06:17;15.03;;;2.83;;
20069;SDS011;10195;50.868;4.382;2022-09-09T07:08:52;12.03;;;2.60;;
20069;SDS011;10195;50.868;4.382;2022-09-09T07:11:19;7.75;;;2.28;;
20069;SDS011;10195;50.868;4.382;2022-09-09T07:13:46;13.70;;;2.67;;
20069;SDS011;10195;50.868;4.382;2022-09-09T07:16:14;10.27;;;2.73;;
20069;SDS011;10195;50.868;4.382;2022-09-09T07:18:44;13.73;;;2.37;;
20069;SDS011;10195;50.868;4.382;2022-09-09T07:21:10;10.17;;;2.60;;
20069;SDS011;10195;50.868;4.382;2022-09-09T07:23:37;12.70;;;2.50;;
20069;SDS011;10195;50.868;4.382;2022-09-09T07:26:07;15.27;;;3.00;;
20069;SDS011;10195;50.868;4.382;2022-09-09T07:28:35;13.35;;;2.25;;
20069;SDS011;10195;50.868;4.382;2022-09-09T07:31:02;13.37;;;2.30;;
20069;SDS011;10195;50.868;4.382;2022-09-09T07:33:28;10.65;;;2.15;;
20069;SDS011;10195;50.868;4.382;2022-09-09T07:36:05;11.82;;;2.30;;
20069;SDS011;10195;50.868;4.382;2022-09-09T07:38:46;12.37;;;2.67;;
20069;SDS011;10195;50.868;4.382;2022-09-09T07:41:24;8.45;;;2.83;;
20069;SDS011;10195;50.868;4.382;2022-09-09T07:43:59;10.57;;;2.10;;
20069;SDS011;10195;50.868;4.382;2022-09-09T07:46:28;11.40;;;2.33;;
20069;SDS011;10195;50.868;4.382;2022-09-09T07:48:55;8.70;;;2.20;;
20069;SDS011;10195;50.868;4.382;2022-09-09T07:51:23;10.03;;;2.37;;
20069;SDS011;10195;50.868;4.382;2022-09-09T07:53:55;7.10;;;2.13;;
20069;SDS011;10195;50.868;4.382;2022-09-09T07:56:25;9.27;;;1.90;;
20069;SDS011;10195;50.868;4.382;2022-09-09T07:58:53;11.20;;;2.30;;
20069;SDS011;10195;50.868;4.382;2022-09-09T08:03:47;11.45;;;1.90;;
20069;SDS011;10195;50.868;4.382;2022-09-09T08:06:19;7.60;;;2.20;;
20069;SDS011;10195;50.868;4.382;2022-09-09T08:08:45;8.38;;;1.80;;
20069;SDS011;10195;50.868;4.382;2022-09-09T08:11:15;10.30;;;1.95;;
20069;SDS011;10195;50.868;4.382;2022-09-09T08:13:41;13.10;;;2.65;;
20069;SDS011;10195;50.868;4.382;2022-09-09T08:16:13;13.07;;;1.95;;
20069;SDS011;10195;50.868;4.382;2022-09-09T08:18:40;10.15;;;2.38;;
20069;SDS011;10195;50.868;4.382;2022-09-09T08:21:14;10.93;;;2.60;;
20069;SDS011;10195;50.868;4.382;2022-09-09T08:23:43;10.57;;;2.13;;
20069;SDS011;10195;50.868;4.382;2022-09-09T08:26:14;11.35;;;2.10;;
20069;SDS011;10195;50.868;4.382;2022-09-09T08:28:42;12.45;;;2.28;;
20069;SDS011;10195;50.868;4.382;2022-09-09T08:31:16;12.40;;;2.25;;
20069;SDS011;10195;50.868;4.382;2022-09-09T08:33:43;11.55;;;2.38;;
20069;SDS011;10195;50.868;4.382;2022-09-09T08:36:16;12.35;;;2.10;;
20069;SDS011;10195;50.868;4.382;2022-09-09T08:38:47;14.40;;;2.60;;
20069;SDS011;10195;50.868;4.382;2022-09-09T08:44:07;13.07;;;3.00;;
20069;SDS011;10195;50.868;4.382;2022-09-09T08:52:51;11.77;;;2.50;;
20069;SDS011;10195;50.868;4.382;2022-09-09T08:57:49;14.13;;;2.50;;
20069;SDS011;10195;50.868;4.382;2022-09-09T09:00:19;9.33;;;2.43;;
20069;SDS011;10195;50.868;4.382;2022-09-09T09:02:48;10.13;;;2.20;;
20069;SDS011;10195;50.868;4.382;2022-09-09T09:05:46;14.73;;;2.83;;
20069;SDS011;10195;50.868;4.382;2022-09-09T09:08:20;11.13;;;2.60;;
20069;SDS011;10195;50.868;4.382;2022-09-09T09:10:58;12.10;;;2.47;;
20069;SDS011;10195;50.868;4.382;2022-09-09T09:13:38;10.83;;;2.77;;
20069;SDS011;10195;50.868;4.382;2022-09-09T09:18:45;10.07;;;2.15;;
20069;SDS011;10195;50.868;4.382;2022-09-09T09:21:12;10.27;;;2.33;;
20069;SDS011;10195;50.868;4.382;2022-09-09T09:24:00;9.50;;;2.47;;
20069;SDS011;10195;50.868;4.382;2022-09-09T09:26:29;11.45;;;1.98;;
20069;SDS011;10195;50.868;4.382;2022-09-09T09:28:58;21.40;;;3.70;;
20069;SDS011;10195;50.868;4.382;2022-09-09T09:31:25;18.67;;;2.78;;
20069;SDS011;10195;50.868;4.382;2022-09-09T09:33:55;13.13;;;3.10;;
20069;SDS011;10195;50.868;4.382;2022-09-09T09:36:24;13.80;;;2.50;;
20069;SDS011;10195;50.868;4.382;2022-09-09T09:39:22;11.02;;;2.33;;
20069;SDS011;10195;50.868;4.382;2022-09-09T09:41:52;8.30;;;2.17;;
20069;SDS011;10195;50.868;4.382;2022-09-09T09:44:29;11.00;;;2.10;;
20069;SDS011;10195;50.868;4.382;2022-09-09T09:52:51;11.37;;;2.70;;
20069;SDS011;10195;50.868;4.382;2022-09-09T09:55:22;10.23;;;2.50;;
20069;SDS011;10195;50.868;4.382;2022-09-09T09:57:49;11.95;;;2.55;;
20069;SDS011;10195;50.868;4.382;2022-09-09T10:00:16;9.85;;;2.30;;
20069;SDS011;10195;50.868;4.382;2022-09-09T10:02:44;10.48;;;2.60;;
20069;SDS011;10195;50.868;4.382;2022-09-09T10:05:20;8.10;;;2.10;;
20069;SDS011;10195;50.868;4.382;2022-09-09T10:10:37;15.10;;;3.00;;
20069;SDS011;10195;50.868;4.382;2022-09-09T10:13:30;9.35;;;1.80;;
20069;SDS011;10195;50.868;4.382;2022-09-09T10:16:13;10.25;;;2.58;;
20069;SDS011;10195;50.868;4.382;2022-09-09T10:19:05;7.00;;;1.98;;
20069;SDS011;10195;50.868;4.382;2022-09-09T10:24:45;9.27;;;2.67;;
20069;SDS011;10195;50.868;4.382;2022-09-09T10:27:42;10.85;;;2.55;;
20069;SDS011;10195;50.868;4.382;2022-09-09T10:33:27;9.80;;;2.38;;
20069;SDS011;10195;50.868;4.382;2022-09-09T10:36:21;8.23;;;2.75;;
20069;SDS011;10195;50.868;4.382;2022-09-09T10:38:59;8.82;;;2.30;;
20069;SDS011;10195;50.868;4.382;2022-09-09T10:55:44;8.45;;;2.10;;
20069;SDS011;10195;50.868;4.382;2022-09-09T10:58:20;6.55;;;1.95;;
20069;SDS011;10195;50.868;4.382;2022-09-09T11:00:55;7.80;;;2.20;;
20069;SDS011;10195;50.868;4.382;2022-09-09T11:03:28;7.50;;;2.10;;
20069;SDS011;10195;50.868;4.382;2022-09-09T11:05:59;6.80;;;2.03;;
20069;SDS011;10195;50.868;4.382;2022-09-09T11:08:39;6.78;;;1.75;;
20069;SDS011;10195;50.868;4.382;2022-09-09T11:16:35;6.95;;;1.80;;
20069;SDS011;10195;50.868;4.382;2022-09-09T11:19:18;9.05;;;1.90;;
20069;SDS011;10195;50.868;4.382;2022-09-09T11:21:53;6.53;;;1.80;;
20069;SDS011;10195;50.868;4.382;2022-09-09T11:24:25;10.90;;;2.45;;
20069;SDS011;10195;50.868;4.382;2022-09-09T11:38:19;9.98;;;2.00;;
20069;SDS011;10195;50.868;4.382;2022-09-09T11:40:58;5.38;;;1.88;;
20069;SDS011;10195;50.868;4.382;2022-09-09T11:43:38;8.15;;;1.83;;
20069;SDS011;10195;50.868;4.382;2022-09-09T11:46:04;5.97;;;1.98;;
20069;SDS011;10195;50.868;4.382;2022-09-09T11:48:33;6.40;;;1.95;;
20069;SDS011;10195;50.868;4.382;2022-09-09T11:51:02;7.60;;;1.98;;
20069;SDS011;10195;50.868;4.382;2022-09-09T11:53:29;5.68;;;2.03;;
20069;SDS011;10195;50.868;4.382;2022-09-09T11:56:22;11.98;;;1.77;;
20069;SDS011;10195;50.868;4.382;2022-09-09T11:59:22;7.45;;;2.10;;
20069;SDS011;10195;50.868;4.382;2022-09-09T12:02:12;8.70;;;2.55;;
20069;SDS011;10195;50.868;4.382;2022-09-09T12:04:58;7.82;;;2.03;;
20069;SDS011;10195;50.868;4.382;2022-09-09T12:07:49;8.10;;;1.73;;
20069;SDS011;10195;50.868;4.382;2022-09-09T12:10:28;9.88;;;2.50;;
20069;SDS011;10195;50.868;4.382;2022-09-09T12:15:46;11.45;;;2.47;;
20069;SDS011;10195;50.868;4.382;2022-09-09T12:18:22;8.77;;;1.90;;
20069;SDS011;10195;50.868;4.382;2022-09-09T12:20:52;9.82;;;2.05;;
20069;SDS011;10195;50.868;4.382;2022-09-09T12:23:34;8.43;;;2.30;;
20069;SDS011;10195;50.868;4.382;2022-09-09T12:26:07;10.68;;;2.20;;
20069;SDS011;10195;50.868;4.382;2022-09-09T12:31:31;7.50;;;1.98;;
20069;SDS011;10195;50.868;4.382;2022-09-09T12:35:00;7.72;;;1.83;;
20069;SDS011;10195;50.868;4.382;2022-09-09T12:36:59;6.10;;;1.75;;
20069;SDS011;10195;50.868;4.382;2022-09-09T12:39:38;9.05;;;1.98;;
20069;SDS011;10195;50.868;4.382;2022-09-09T12:42:18;5.93;;;1.90;;
20069;SDS011;10195;50.868;4.382;2022-09-09T12:44:52;5.80;;;2.30;;
20069;SDS011;10195;50.868;4.382;2022-09-09T12:47:18;9.20;;;2.22;;
20069;SDS011;10195;50.868;4.382;2022-09-09T12:49:47;7.75;;;1.90;;
20069;SDS011;10195;50.868;4.382;2022-09-09T12:52:18;10.15;;;1.83;;
20069;SDS011;10195;50.868;4.382;2022-09-09T12:55:01;6.53;;;1.90;;
20069;SDS011;10195;50.868;4.382;2022-09-09T12:57:31;5.85;;;2.35;;
20069;SDS011;10195;50.868;4.382;2022-09-09T13:00:20;7.68;;;1.85;;
20069;SDS011;10195;50.868;4.382;2022-09-09T13:02:55;6.22;;;1.92;;
20069;SDS011;10195;50.868;4.382;2022-09-09T13:05:26;5.47;;;1.50;;
20069;SDS011;10195;50.868;4.382;2022-09-09T13:08:02;7.68;;;1.63;;
20069;SDS011;10195;50.868;4.382;2022-09-09T13:10:31;4.43;;;1.48;;
20069;SDS011;10195;50.868;4.382;2022-09-09T13:13:00;5.80;;;1.48;;
20069;SDS011;10195;50.868;4.382;2022-09-09T13:15:27;5.95;;;1.80;;
20069;SDS011;10195;50.868;4.382;2022-09-09T13:17:55;5.53;;;1.77;;
20069;SDS011;10195;50.868;4.382;2022-09-09T13:20:28;6.15;;;1.90;;
20069;SDS011;10195;50.868;4.382;2022-09-09T13:22:55;10.18;;;1.60;;
20069;SDS011;10195;50.868;4.382;2022-09-09T13:25:29;4.32;;;1.42;;
20069;SDS011;10195;50.868;4.382;2022-09-09T13:27:56;3.00;;;1.20;;
20069;SDS011;10195;50.868;4.382;2022-09-09T13:36:12;7.63;;;1.83;;
20069;SDS011;10195;50.868;4.382;2022-09-09T13:38:32;7.40;;;1.65;;
20069;SDS011;10195;50.868;4.382;2022-09-09T13:41:08;4.38;;;1.55;;
20069;SDS011;10195;50.868;4.382;2022-09-09T13:43:42;5.13;;;1.40;;
20069;SDS011;10195;50.868;4.382;2022-09-09T13:49:01;5.65;;;1.70;;
20069;SDS011;10195;50.868;4.382;2022-09-09T13:51:43;4.75;;;1.55;;
20069;SDS011;10195;50.868;4.382;2022-09-09T13:54:12;3.97;;;1.52;;
20069;SDS011;10195;50.868;4.382;2022-09-09T13:56:40;4.10;;;1.70;;
20069;SDS011;10195;50.868;4.382;2022-09-09T13:59:09;8.02;;;1.40;;
20069;SDS011;10195;50.868;4.382;2022-09-09T14:01:40;4.93;;;1.48;;
20069;SDS011;10195;50.868;4.382;2022-09-09T14:04:06;3.72;;;1.30;;
20069;SDS011;10195;50.868;4.382;2022-09-09T14:06:33;3.58;;;1.48;;
20069;SDS011;10195;50.868;4.382;2022-09-09T14:09:03;5.55;;;1.40;;
20069;SDS011;10195;50.868;4.382;2022-09-09T14:11:29;5.93;;;1.30;;
20069;SDS011;10195;50.868;4.382;2022-09-09T14:13:55;6.40;;;1.90;;
20069;SDS011;10195;50.868;4.382;2022-09-09T14:16:20;4.03;;;1.50;;
20069;SDS011;10195;50.868;4.382;2022-09-09T14:18:46;4.30;;;1.52;;
20069;SDS011;10195;50.868;4.382;2022-09-09T14:21:12;4.82;;;1.60;;
20069;SDS011;10195;50.868;4.382;2022-09-09T14:23:40;5.88;;;1.75;;
20069;SDS011;10195;50.868;4.382;2022-09-09T14:26:06;5.63;;;1.60;;
20069;SDS011;10195;50.868;4.382;2022-09-09T14:28:32;4.20;;;1.52;;
20069;SDS011;10195;50.868;4.382;2022-09-09T14:31:02;6.10;;;1.67;;
20069;SDS011;10195;50.868;4.382;2022-09-09T14:33:29;7.95;;;2.05;;
20069;SDS011;10195;50.868;4.382;2022-09-09T14:36:04;9.20;;;1.70;;
20069;SDS011;10195;50.868;4.382;2022-09-09T14:38:30;5.53;;;1.70;;
20069;SDS011;10195;50.868;4.382;2022-09-09T14:40:58;5.45;;;2.05;;
20069;SDS011;10195;50.868;4.382;2022-09-09T14:43:24;4.22;;;1.52;;
20069;SDS011;10195;50.868;4.382;2022-09-09T14:45:51;6.13;;;1.85;;
20069;SDS011;10195;50.868;4.382;2022-09-09T14:48:17;9.88;;;2.13;;
20069;SDS011;10195;50.868;4.382;2022-09-09T14:50:44;7.00;;;1.60;;
20069;SDS011;10195;50.868;4.382;2022-09-09T14:53:09;7.68;;;1.65;;
20069;SDS011;10195;50.868;4.382;2022-09-09T14:55:35;5.57;;;1.70;;
20069;SDS011;10195;50.868;4.382;2022-09-09T14:58:02;4.68;;;1.58;;
20069;SDS011;10195;50.868;4.382;2022-09-09T15:00:28;6.13;;;1.80;;
20069;SDS011;10195;50.868;4.382;2022-09-09T15:02:54;5.88;;;1.90;;
20069;SDS011;10195;50.868;4.382;2022-09-09T15:05:21;6.68;;;1.90;;
20069;SDS011;10195;50.868;4.382;2022-09-09T15:07:47;6.90;;;1.80;;
20069;SDS011;10195;50.868;4.382;2022-09-09T15:10:16;7.03;;;2.20;;
20069;SDS011;10195;50.868;4.382;2022-09-09T15:12:42;5.13;;;1.88;;
20069;SDS011;10195;50.868;4.382;2022-09-09T15:15:08;8.02;;;1.88;;
20069;SDS011;10195;50.868;4.382;2022-09-09T15:17:34;6.38;;;2.28;;
20069;SDS011;10195;50.868;4.382;2022-09-09T15:20:01;10.75;;;2.45;;
20069;SDS011;10195;50.868;4.382;2022-09-09T15:22:27;5.95;;;2.33;;
20069;SDS011;10195;50.868;4.382;2022-09-09T15:24:53;7.93;;;2.55;;
20069;SDS011;10195;50.868;4.382;2022-09-09T15:27:19;11.50;;;2.13;;
20069;SDS011;10195;50.868;4.382;2022-09-09T15:29:44;4.63;;;2.05;;
20069;SDS011;10195;50.868;4.382;2022-09-09T15:32:11;4.70;;;1.80;;
20069;SDS011;10195;50.868;4.382;2022-09-09T15:34:37;11.55;;;2.95;;
20069;SDS011;10195;50.868;4.382;2022-09-09T15:37:03;8.85;;;2.35;;
20069;SDS011;10195;50.868;4.382;2022-09-09T15:39:28;6.63;;;1.92;;
20069;SDS011;10195;50.868;4.382;2022-09-09T15:41:54;4.97;;;1.38;;
20069;SDS011;10195;50.868;4.382;2022-09-09T15:44:20;5.40;;;1.80;;
20069;SDS011;10195;50.868;4.382;2022-09-09T15:46:49;7.55;;;1.80;;
20069;SDS011;10195;50.868;4.382;2022-09-09T15:49:19;3.10;;;1.40;;
20069;SDS011;10195;50.868;4.382;2022-09-09T15:51:59;7.80;;;2.05;;
20069;SDS011;10195;50.868;4.382;2022-09-09T15:54:28;5.80;;;1.92;;
20069;SDS011;10195;50.868;4.382;2022-09-09T15:56:58;6.28;;;1.90;;
20069;SDS011;10195;50.868;4.382;2022-09-09T15:59:26;7.80;;;2.17;;
20069;SDS011;10195;50.868;4.382;2022-09-09T16:01:54;8.75;;;2.10;;
20069;SDS011;10195;50.868;4.382;2022-09-09T16:04:20;6.35;;;1.55;;
20069;SDS011;10195;50.868;4.382;2022-09-09T16:06:51;4.75;;;1.95;;
20069;SDS011;10195;50.868;4.382;2022-09-09T16:09:29;7.60;;;2.38;;
20069;SDS011;10195;50.868;4.382;2022-09-09T16:11:56;4.57;;;1.85;;
20069;SDS011;10195;50.868;4.382;2022-09-09T16:14:23;6.97;;;1.98;;
20069;SDS011;10195;50.868;4.382;2022-09-09T16:16:52;4.65;;;1.80;;
20069;SDS011;10195;50.868;4.382;2022-09-09T16:19:18;7.13;;;2.10;;
20069;SDS011;10195;50.868;4.382;2022-09-09T16:21:45;6.82;;;2.10;;
20069;SDS011;10195;50.868;4.382;2022-09-09T16:24:14;4.57;;;2.15;;
20069;SDS011;10195;50.868;4.382;2022-09-09T16:26:43;6.75;;;2.28;;
20069;SDS011;10195;50.868;4.382;2022-09-09T16:29:10;5.88;;;2.20;;
20069;SDS011;10195;50.868;4.382;2022-09-09T16:31:36;6.32;;;1.88;;
20069;SDS011;10195;50.868;4.382;2022-09-09T16:34:02;8.02;;;2.50;;
20069;SDS011;10195;50.868;4.382;2022-09-09T16:36:29;4.45;;;1.88;;
20069;SDS011;10195;50.868;4.382;2022-09-09T16:38:57;4.10;;;2.17;;
20069;SDS011;10195;50.868;4.382;2022-09-09T16:41:24;5.72;;;1.98;;
20069;SDS011;10195;50.868;4.382;2022-09-09T16:43:59;4.82;;;1.50;;
20069;SDS011;10195;50.868;4.382;2022-09-09T16:46:27;4.20;;;1.83;;
20069;SDS011;10195;50.868;4.382;2022-09-09T16:48:58;8.10;;;1.70;;
20069;SDS011;10195;50.868;4.382;2022-09-09T16:51:27;10.18;;;4.40;;
20069;SDS011;10195;50.868;4.382;2022-09-09T16:53:55;8.82;;;1.75;;
20069;SDS011;10195;50.868;4.382;2022-09-09T16:56:23;6.82;;;1.90;;
20069;SDS011;10195;50.868;4.382;2022-09-09T16:58:52;4.10;;;1.75;;
20069;SDS011;10195;50.868;4.382;2022-09-09T17:01:20;5.47;;;2.10;;
20069;SDS011;10195;50.868;4.382;2022-09-09T17:03:46;8.30;;;2.33;;
20069;SDS011;10195;50.868;4.382;2022-09-09T17:06:13;3.58;;;1.50;;
20069;SDS011;10195;50.868;4.382;2022-09-09T17:08:40;5.18;;;2.17;;
20069;SDS011;10195;50.868;4.382;2022-09-09T17:11:13;3.53;;;1.85;;
20069;SDS011;10195;50.868;4.382;2022-09-09T17:13:43;8.35;;;1.98;;
20069;SDS011;10195;50.868;4.382;2022-09-09T17:16:11;8.18;;;2.15;;